Time;durP1;ratioP1;P1;durP2;ratioP2;P2;SDS_P1;SDS_P2;PMS_P1;PMS_P2;Temp;Humidity;BMP_temperature;BMP_pressure;BME280_temperature;BME280_humidity;BME280_pressure;Samples;Min_cycle;Max_cycle;Signal;HPM_P1;HPM_P2
2022/03/20 00:00:25;;;;;;;38.53;17.07;;;0.90;63.80;;;;;;9863167;30;20047;-84
2022/03/20 00:05:26;;;;;;;41.77;18.30;;;0.80;63.90;;;;;;9870815;30;20035;-85
2022/03/20 00:10:27;;;;;;;38.73;17.47;;;0.70;64.20;;;;;;9871014;30;20514;-84
2022/03/20 00:15:30;;;;;;;37.37;17.97;;;0.70;64.40;;;;;;9853999;30;20644;-84
2022/03/20 00:20:37;;;;;;;35.07;17.77;;;0.60;64.30;;;;;;9870525;30;20046;-84
2022/03/20 00:25:41;;;;;;;41.50;18.43;;;0.60;64.00;;;;;;9870523;30;20045;-84
2022/03/20 00:30:42;;;;;;;40.40;16.83;;;0.60;64.00;;;;;;9870297;30;20091;-85
2022/03/20 00:35:43;;;;;;;34.93;17.37;;;0.60;64.10;;;;;;9869938;30;20047;-83
2022/03/20 00:40:44;;;;;;;39.10;17.83;;;0.50;64.20;;;;;;9869881;30;20047;-84
2022/03/20 00:45:44;;;;;;;48.33;19.43;;;0.60;64.20;;;;;;9869352;30;20034;-85
2022/03/20 00:50:45;;;;;;;39.47;18.00;;;0.50;64.30;;;;;;9869456;30;20063;-84
2022/03/20 00:55:46;;;;;;;40.77;18.73;;;0.40;64.10;;;;;;9869573;30;20109;-83
2022/03/20 01:00:46;;;;;;;37.07;16.77;;;0.50;64.30;;;;;;9868173;30;20492;-84
2022/03/20 01:05:47;;;;;;;38.20;17.53;;;0.40;64.00;;;;;;9868387;30;20040;-84
2022/03/20 01:10:48;;;;;;;40.60;19.03;;;0.40;63.90;;;;;;9868557;30;20474;-84
2022/03/20 01:15:49;;;;;;;39.23;18.97;;;0.40;63.90;;;;;;9868500;30;20431;-84
2022/03/20 01:20:50;;;;;;;47.20;19.57;;;0.40;64.30;;;;;;9868162;30;20047;-84
2022/03/20 01:25:52;;;;;;;41.57;18.63;;;0.30;64.20;;;;;;9867628;30;20070;-85
2022/03/20 01:30:55;;;;;;;49.93;19.60;;;0.30;63.90;;;;;;9866530;30;20477;-84
2022/03/20 01:35:55;;;;;;;38.90;18.90;;;0.30;64.10;;;;;;9867278;30;20393;-84
2022/03/20 01:40:56;;;;;;;41.27;18.47;;;0.20;64.50;;;;;;9867486;30;20109;-85
2022/03/20 01:45:57;;;;;;;41.80;18.90;;;0.10;65.00;;;;;;9849883;30;20074;-84
2022/03/20 01:50:58;;;;;;;46.07;19.60;;;0.10;65.00;;;;;;9851719;30;20091;-84
2022/03/20 01:55:58;;;;;;;46.07;21.67;;;0.10;64.70;;;;;;9867585;30;20043;-85
2022/03/20 02:01:00;;;;;;;45.23;19.47;;;0.10;64.80;;;;;;9850459;30;20478;-84
2022/03/20 02:06:01;;;;;;;43.20;20.20;;;0.00;65.20;;;;;;9866929;30;20036;-84
2022/03/20 02:11:02;;;;;;;40.50;18.40;;;-0.20;65.30;;;;;;9850349;30;20050;-84
2022/03/20 02:16:03;;;;;;;44.73;20.53;;;-0.20;65.40;;;;;;9865749;30;20273;-84
2022/03/20 02:21:03;;;;;;;46.73;20.77;;;-0.20;65.50;;;;;;9866200;30;20044;-84
2022/03/20 02:26:04;;;;;;;46.13;19.80;;;-0.20;65.40;;;;;;9866010;30;20055;-85
2022/03/20 02:31:05;;;;;;;50.43;20.93;;;-0.30;66.00;;;;;;9849480;30;20040;-85
2022/03/20 02:36:06;;;;;;;44.00;19.00;;;-0.50;66.90;;;;;;9865847;30;20401;-84
2022/03/20 02:41:14;;;;;;;44.67;19.47;;;-0.40;66.60;;;;;;9865202;30;20043;-84
2022/03/20 02:46:14;;;;;;;41.23;20.67;;;-0.30;66.60;;;;;;9859989;30;20028;-85
2022/03/20 02:51:17;;;;;;;68.27;26.67;;;-0.30;66.30;;;;;;9855641;30;20055;-85
2022/03/20 02:56:17;;;;;;;63.00;26.50;;;-0.30;66.20;;;;;;9865043;30;20052;-84
2022/03/20 03:01:18;;;;;;;75.00;29.70;;;-0.40;66.60;;;;;;9865193;30;20060;-85
2022/03/20 03:06:19;;;;;;;47.90;22.50;;;-0.70;67.90;;;;;;9864836;30;20031;-85
2022/03/20 03:11:19;;;;;;;48.97;22.50;;;-0.80;68.00;;;;;;9864558;30;20043;-85
2022/03/20 03:16:20;;;;;;;40.63;20.10;;;-0.90;68.20;;;;;;9864235;30;20043;-85
2022/03/20 03:21:21;;;;;;;51.67;21.90;;;-1.10;68.30;;;;;;9864147;30;20056;-85
2022/03/20 03:26:21;;;;;;;41.23;18.73;;;-1.20;68.80;;;;;;9863862;30;20108;-85
2022/03/20 03:31:22;;;;;;;41.47;19.20;;;-1.30;69.60;;;;;;9863904;30;20047;-85
2022/03/20 03:36:23;;;;;;;45.33;19.93;;;-1.20;69.90;;;;;;9866485;30;20055;-85
2022/03/20 03:41:24;;;;;;;42.07;20.53;;;-1.10;69.80;;;;;;9854870;30;20044;-84
2022/03/20 03:46:24;;;;;;;49.93;23.03;;;-0.90;69.60;;;;;;9871764;30;20036;-85
2022/03/20 03:51:25;;;;;;;45.27;20.73;;;-0.80;69.40;;;;;;9870301;30;20063;-85
2022/03/20 03:56:26;;;;;;;45.50;20.97;;;-0.70;69.00;;;;;;9870611;30;20042;-84
2022/03/20 04:01:26;;;;;;;46.43;21.07;;;-0.70;69.20;;;;;;9871152;30;20062;-85
2022/03/20 04:06:27;;;;;;;39.63;19.10;;;-0.70;69.00;;;;;;9870416;30;20032;-85
2022/03/20 04:11:28;;;;;;;40.73;19.47;;;-0.90;69.30;;;;;;9870386;30;20629;-84
2022/03/20 04:16:29;;;;;;;45.13;20.20;;;-1.00;70.00;;;;;;9854489;30;20032;-85
2022/03/20 04:21:30;;;;;;;49.70;21.83;;;-1.00;69.80;;;;;;9870995;30;20043;-85
2022/03/20 04:26:33;;;;;;;44.53;20.97;;;-1.00;69.60;;;;;;9869926;30;20042;-85
2022/03/20 04:31:33;;;;;;;49.93;20.17;;;-1.00;69.20;;;;;;9869815;30;20040;-85
2022/03/20 04:36:37;;;;;;;51.37;21.97;;;-1.10;69.90;;;;;;9869940;30;20036;-84
2022/03/20 04:41:37;;;;;;;44.23;21.03;;;-1.40;71.40;;;;;;9868622;30;20056;-84
2022/03/20 04:46:40;;;;;;;39.77;19.83;;;-1.40;71.40;;;;;;9868387;30;20035;-85
2022/03/20 05:02:19;;;;;;;44.57;21.40;;;-1.20;70.80;;;;;;9869125;30;20060;-87
2022/03/20 05:07:19;;;;;;;44.67;20.60;;;-1.10;70.70;;;;;;9868188;30;20408;-85
2022/03/20 05:17:41;;;;;;;43.60;20.73;;;-1.10;70.30;;;;;;9868193;30;20043;-87
2022/03/20 05:22:42;;;;;;;46.47;20.27;;;-1.10;70.40;;;;;;9867406;30;20047;-88
2022/03/20 05:27:43;;;;;;;46.73;21.20;;;-1.00;70.40;;;;;;9866203;30;20093;-87
2022/03/20 05:32:43;;;;;;;45.70;20.77;;;-1.00;70.60;;;;;;9850672;30;20032;-87
2022/03/20 05:37:45;;;;;;;46.83;20.30;;;-0.90;70.60;;;;;;9868518;30;20390;-87
2022/03/20 05:42:45;;;;;;;44.83;21.03;;;-0.80;70.40;;;;;;9868325;30;20558;-87
2022/03/20 05:47:46;;;;;;;46.83;21.00;;;-0.70;70.50;;;;;;9851742;30;20093;-87
2022/03/20 05:52:47;;;;;;;43.80;22.00;;;-0.50;70.30;;;;;;9851133;30;20060;-86
2022/03/20 05:58:03;;;;;;;50.57;21.37;;;-0.40;70.20;;;;;;9867311;30;20115;-86
2022/03/20 06:03:04;;;;;;;44.58;22.40;;;-0.30;70.00;;;;;;9850838;30;20071;-86
2022/03/20 06:08:06;;;;;;;48.73;23.07;;;-0.20;70.70;;;;;;9867011;30;20511;-87
2022/03/20 06:13:06;;;;;;;48.63;24.33;;;0.00;71.60;;;;;;9866871;30;20067;-87
2022/03/20 06:18:07;;;;;;;50.53;24.07;;;0.10;70.80;;;;;;9866223;30;20529;-87
2022/03/20 06:23:08;;;;;;;50.40;22.97;;;0.30;70.40;;;;;;9866612;30;20039;-86
2022/03/20 06:28:08;;;;;;;52.10;24.63;;;0.40;69.40;;;;;;9866240;30;20171;-86
2022/03/20 06:33:09;;;;;;;48.40;24.43;;;0.60;69.00;;;;;;9866035;30;20126;-86
2022/03/20 06:38:10;;;;;;;60.67;24.63;;;0.70;68.10;;;;;;9865925;30;20115;-86
2022/03/20 06:43:11;;;;;;;56.07;26.17;;;0.90;67.90;;;;;;9849969;30;20056;-86
2022/03/20 06:48:11;;;;;;;49.27;24.70;;;1.10;67.60;;;;;;9849646;30;20039;-86
2022/03/20 06:53:12;;;;;;;54.00;25.00;;;1.30;67.80;;;;;;9849204;30;20047;-86
2022/03/20 06:58:21;;;;;;;41.97;23.50;;;1.50;66.60;;;;;;9860671;30;20032;-85
2022/03/20 07:03:21;;;;;;;43.03;21.10;;;1.80;66.90;;;;;;9828799;30;20052;-86
2022/03/20 07:08:22;;;;;;;74.30;35.47;;;2.00;66.10;;;;;;9832251;30;20032;-83
2022/03/20 07:18:44;;;;;;;73.17;36.50;;;2.50;65.90;;;;;;9860060;30;20073;-86
2022/03/20 07:23:45;;;;;;;61.60;28.90;;;2.80;66.00;;;;;;9862770;30;20035;-85
2022/03/20 07:34:05;;;;;;;51.93;24.37;;;3.50;63.90;;;;;;9863165;30;20051;-84
2022/03/20 07:39:06;;;;;;;55.87;27.93;;;3.90;62.00;;;;;;9861600;30;20032;-84
2022/03/20 07:44:07;;;;;;;52.10;25.50;;;4.20;62.30;;;;;;9865032;30;20032;-84
2022/03/20 07:49:09;;;;;;;49.67;25.00;;;4.60;61.60;;;;;;9845292;30;20123;-84
2022/03/20 07:54:09;;;;;;;47.27;24.40;;;4.90;60.20;;;;;;9826981;30;20086;-84
2022/03/20 07:59:11;;;;;;;52.10;26.10;;;5.30;59.00;;;;;;9826745;30;20040;-86
2022/03/20 08:04:12;;;;;;;51.97;23.77;;;5.60;58.50;;;;;;9810954;30;20044;-86
2022/03/20 08:09:13;;;;;;;48.47;26.00;;;5.90;57.70;;;;;;9811486;30;20040;-84
2022/03/20 08:14:13;;;;;;;42.47;21.97;;;6.20;56.90;;;;;;9804896;30;20040;-85
2022/03/20 08:19:17;;;;;;;36.87;21.10;;;6.40;55.80;;;;;;9821361;30;20470;-83
2022/03/20 08:24:18;;;;;;;39.67;21.30;;;6.70;55.30;;;;;;9835611;30;20044;-85
2022/03/20 08:29:19;;;;;;;40.67;22.97;;;7.20;55.30;;;;;;9835261;30;20075;-85
2022/03/20 08:34:19;;;;;;;33.73;18.90;;;7.40;52.90;;;;;;9832688;30;20124;-87
2022/03/20 08:39:20;;;;;;;41.70;24.20;;;7.70;52.50;;;;;;9829912;30;20048;-87
2022/03/20 08:44:25;;;;;;;38.50;20.43;;;8.00;53.40;;;;;;9856477;30;20116;-85
2022/03/20 08:49:26;;;;;;;42.03;23.57;;;8.40;53.40;;;;;;9836585;30;20090;-87
2022/03/20 08:54:27;;;;;;;45.63;24.73;;;8.60;51.80;;;;;;9863192;30;20115;-87
2022/03/20 08:59:27;;;;;;;42.87;24.27;;;8.90;52.60;;;;;;9866848;30;20036;-84
2022/03/20 09:04:28;;;;;;;39.07;22.27;;;9.40;51.80;;;;;;9865051;30;20436;-86
2022/03/20 09:31:39;;;;;;;31.53;17.37;;;10.20;47.30;;;;;;11264833;24;20126;-87
2022/03/20 09:37:29;;;;;;;27.80;16.23;;;10.40;48.70;;;;;;9821275;30;20044;-85
2022/03/20 10:04:58;;;;;;;31.10;15.48;;;10.90;47.20;;;;;;11382757;24;20106;-87
2022/03/20 10:10:43;;;;;;;29.10;15.63;;;11.20;44.30;;;;;;9853054;30;20519;-87
2022/03/20 10:15:44;;;;;;;34.55;17.77;;;11.40;45.20;;;;;;9842740;30;20083;-86
2022/03/20 10:20:48;;;;;;;26.33;16.02;;;11.70;46.30;;;;;;9848181;30;20059;-84
2022/03/20 10:31:52;;;;;;;;;;;12.00;42.90;;;;;;9838821;30;20118;-85
2022/03/20 10:36:53;;;;;;;24.27;13.55;;;11.90;42.80;;;;;;9834339;30;19928;-85
2022/03/20 10:41:56;;;;;;;25.40;11.95;;;11.70;42.50;;;;;;9863429;30;20054;-86
2022/03/20 10:47:04;;;;;;;26.83;13.90;;;11.50;42.10;;;;;;9836234;30;20043;-85
2022/03/20 10:52:11;;;;;;;20.83;12.25;;;11.60;43.80;;;;;;9831440;30;20173;-84
2022/03/20 10:57:13;;;;;;;22.10;13.02;;;11.80;43.70;;;;;;9825951;30;20028;-85
2022/03/20 11:02:22;;;;;;;22.58;12.65;;;12.10;43.40;;;;;;9865174;30;20043;-86
2022/03/20 11:07:23;;;;;;;19.95;11.43;;;12.10;42.80;;;;;;9862182;30;20063;-86
2022/03/20 11:12:33;;;;;;;22.77;13.00;;;11.80;40.70;;;;;;9864954;30;20071;-85
2022/03/20 11:17:43;;;;;;;19.27;11.38;;;12.00;43.10;;;;;;9864275;30;20067;-86
2022/03/20 11:22:51;;;;;;;25.35;13.93;;;11.90;41.30;;;;;;9863445;30;20050;-86
2022/03/20 11:27:55;;;;;;;24.20;12.23;;;12.00;43.80;;;;;;9864631;30;20097;-86
2022/03/20 11:33:00;;;;;;;19.65;12.18;;;12.00;41.40;;;;;;9863672;30;20047;-86
2022/03/20 11:38:19;;;;;;;147.00;28.83;;;12.10;42.50;;;;;;9854439;30;20093;-85
2022/03/20 11:43:20;;;;;;;28.40;15.27;;;12.50;44.20;;;;;;9863733;30;20047;-87
2022/03/20 11:48:20;;;;;;;20.67;12.25;;;12.70;42.60;;;;;;9863284;30;20046;-87
2022/03/20 11:53:28;;;;;;;21.92;11.88;;;12.60;43.10;;;;;;9862597;30;20098;-85
2022/03/20 11:58:40;;;;;;;21.08;12.25;;;12.20;40.90;;;;;;9867228;30;20060;-86
2022/03/20 12:04:04;;;;;;;21.83;12.60;;;12.20;42.80;;;;;;9860277;30;20083;-85
2022/03/20 12:09:27;;;;;;;26.33;15.18;;;12.60;40.10;;;;;;9870650;30;20400;-84
2022/03/20 12:14:39;;;;;;;26.33;14.88;;;12.60;42.50;;;;;;9859075;30;20063;-85
2022/03/20 12:19:55;;;;;;;20.92;11.85;;;12.80;41.00;;;;;;9867795;30;20050;-84
2022/03/20 12:24:58;;;;;;;29.15;14.43;;;12.80;42.30;;;;;;9837681;30;20028;-84
2022/03/20 12:30:04;;;;;;;16.23;10.13;;;12.70;41.60;;;;;;9866102;30;20032;-85
2022/03/20 12:35:25;;;;;;;18.42;10.88;;;12.80;40.30;;;;;;9869018;30;20043;-84
2022/03/20 12:40:32;;;;;;;18.58;11.10;;;12.70;40.30;;;;;;9849904;30;20055;-87
2022/03/20 12:45:44;;;;;;;22.55;11.82;;;12.90;43.00;;;;;;9866881;30;20070;-83
2022/03/20 12:50:54;;;;;;;27.63;15.50;;;13.10;40.40;;;;;;9870316;30;20038;-84
2022/03/20 12:56:00;;;;;;;26.92;15.35;;;13.20;41.00;;;;;;9859044;30;20039;-83
2022/03/20 13:01:08;;;;;;;40.45;24.40;;;13.30;40.90;;;;;;9868671;30;20050;-85
2022/03/20 13:06:09;;;;;;;23.52;13.25;;;13.20;41.70;;;;;;9868657;30;20407;-84
2022/03/20 13:16:34;;;;;;;33.58;16.30;;;13.30;41.00;;;;;;9862042;30;20055;-84
2022/03/20 13:21:34;;;;;;;673.65;337.00;;;13.20;41.60;;;;;;9862888;30;20082;-83
2022/03/20 13:26:35;;;;;;;57.92;25.50;;;13.10;39.60;;;;;;9850558;30;20396;-84
2022/03/20 13:31:36;;;;;;;25.35;13.15;;;12.90;40.30;;;;;;9851403;30;20039;-85
2022/03/20 13:36:38;;;;;;;484.85;273.42;;;13.10;41.50;;;;;;9867350;30;20461;-83
2022/03/20 13:41:44;;;;;;;28.17;15.30;;;13.10;39.60;;;;;;9866249;30;20043;-84
2022/03/20 13:46:46;;;;;;;140.25;75.28;;;13.20;41.10;;;;;;9861724;30;20089;-84
2022/03/20 13:51:49;;;;;;;27.40;12.95;;;12.70;39.10;;;;;;9865897;30;20071;-84
2022/03/20 13:57:12;;;;;;;20.92;11.85;;;12.60;40.50;;;;;;9867067;30;20448;-84
2022/03/20 14:02:13;;;;;;;26.27;13.23;;;12.60;40.20;;;;;;9866857;30;20118;-84
2022/03/20 14:07:24;;;;;;;29.50;15.82;;;12.70;41.10;;;;;;9865785;30;20060;-83
2022/03/20 14:12:31;;;;;;;23.38;12.82;;;12.70;40.30;;;;;;9849205;30;20036;-84
2022/03/20 14:17:52;;;;;;;27.70;14.85;;;12.70;40.50;;;;;;9865574;30;20067;-84
2022/03/20 14:22:57;;;;;;;32.17;21.05;;;12.70;40.30;;;;;;9865580;30;20040;-83
2022/03/20 14:28:00;;;;;;;61.92;44.33;;;12.60;40.80;;;;;;9876417;30;20040;-83
2022/03/20 14:44:07;;;;;;;36.30;20.00;;;12.20;39.40;;;;;;9863189;30;20429;-83
2022/03/20 14:49:09;;;;;;;219.73;127.53;;;12.00;39.70;;;;;;9865207;30;20071;-83
2022/03/20 14:54:10;;;;;;;117.85;61.90;;;11.90;40.90;;;;;;9864359;30;20036;-83
2022/03/20 14:59:12;;;;;;;39.80;25.25;;;11.80;41.40;;;;;;9864697;30;20044;-84
2022/03/20 15:04:14;;;;;;;23.60;13.30;;;11.60;41.20;;;;;;9858254;30;20116;-83
2022/03/20 15:14:35;;;;;;;24.55;12.20;;;11.60;40.90;;;;;;9866434;30;20039;-83
2022/03/20 15:19:36;;;;;;;30.77;14.15;;;11.50;40.90;;;;;;9864944;30;20047;-84
2022/03/20 15:24:38;;;;;;;19.95;10.90;;;11.30;40.00;;;;;;9868104;30;20038;-83
2022/03/20 15:29:40;;;;;;;18.20;9.75;;;11.10;39.80;;;;;;9874266;30;20473;-83
2022/03/20 15:34:43;;;;;;;24.88;11.10;;;10.90;40.10;;;;;;9847313;30;20499;-83
2022/03/20 15:39:45;;;;;;;23.70;11.77;;;10.60;39.90;;;;;;9862188;30;20044;-83
2022/03/20 15:44:45;;;;;;;23.77;10.87;;;10.50;39.40;;;;;;9863617;30;20390;-85
2022/03/20 15:49:46;;;;;;;28.83;12.80;;;10.30;38.50;;;;;;9863639;30;20031;-82
2022/03/20 15:54:48;;;;;;;16.60;9.40;;;10.10;39.30;;;;;;9876146;30;20122;-84
2022/03/20 15:59:48;;;;;;;59.57;28.43;;;10.00;39.00;;;;;;9882781;30;20039;-83
2022/03/20 16:04:50;;;;;;;478.23;256.80;;;9.80;39.80;;;;;;9898385;30;20074;-83
2022/03/20 16:09:51;;;;;;;132.57;59.87;;;9.70;39.20;;;;;;9889879;30;20047;-83
2022/03/20 16:14:52;;;;;;;362.97;159.37;;;9.50;39.20;;;;;;9896336;30;20035;-83
2022/03/20 16:19:53;;;;;;;79.23;31.10;;;9.40;39.70;;;;;;9859750;30;20048;-84
2022/03/20 16:30:13;;;;;;;249.40;112.13;;;9.00;39.50;;;;;;9871100;30;20958;-82
2022/03/20 16:35:14;;;;;;;137.97;52.53;;;8.70;40.00;;;;;;9873930;30;20541;-82
2022/03/20 16:40:16;;;;;;;162.93;57.20;;;8.50;40.50;;;;;;9855588;30;20040;-83
2022/03/20 16:45:17;;;;;;;179.13;60.87;;;8.30;40.40;;;;;;9852029;30;20154;-83
2022/03/20 16:50:19;;;;;;;129.47;43.33;;;8.10;41.50;;;;;;9899157;30;20486;-83
2022/03/20 16:55:20;;;;;;;61.63;20.70;;;7.70;41.70;;;;;;9889155;30;20047;-83
2022/03/20 17:00:21;;;;;;;28.20;10.93;;;7.50;42.50;;;;;;9869455;30;20039;-84
2022/03/20 17:05:22;;;;;;;15.63;8.63;;;7.20;43.00;;;;;;9891283;30;20067;-82
2022/03/20 17:10:23;;;;;;;15.57;7.40;;;7.00;42.60;;;;;;9851904;30;20035;-83
2022/03/20 17:15:24;;;;;;;20.20;8.17;;;6.90;43.20;;;;;;9868460;30;20031;-83
2022/03/20 17:20:26;;;;;;;16.77;7.77;;;6.80;43.50;;;;;;9848295;30;20048;-83
2022/03/20 17:25:27;;;;;;;18.10;8.73;;;6.70;43.60;;;;;;9852214;30;20065;-83
2022/03/20 17:30:27;;;;;;;23.93;9.90;;;6.50;44.40;;;;;;9867204;30;20130;-85
2022/03/20 17:35:29;;;;;;;28.53;10.37;;;6.40;44.20;;;;;;9869343;30;20040;-85
2022/03/20 17:46:29;;;;;;;19.63;9.80;;;6.10;44.40;;;;;;9881502;30;20050;-85
2022/03/20 17:51:30;;;;;;;24.50;11.33;;;5.90;45.10;;;;;;9877077;30;20028;-85
2022/03/20 17:56:30;;;;;;;23.80;10.67;;;5.60;46.00;;;;;;9859557;30;20047;-85
2022/03/20 18:01:31;;;;;;;32.30;14.03;;;5.20;47.00;;;;;;9865917;30;20181;-84
2022/03/20 18:11:52;;;;;;;38.80;18.97;;;4.90;46.80;;;;;;9865728;30;20040;-84
2022/03/20 18:16:52;;;;;;;43.27;17.93;;;4.70;47.80;;;;;;9866446;30;20044;-84
2022/03/20 18:21:53;;;;;;;38.10;15.43;;;4.50;48.30;;;;;;9862126;30;20839;-84
2022/03/20 18:33:00;;;;;;;35.63;15.03;;;4.30;48.40;;;;;;9861208;30;20484;-83
2022/03/20 18:38:05;;;;;;;35.23;15.60;;;4.50;47.90;;;;;;9849606;30;20051;-83
2022/03/20 18:43:06;;;;;;;33.40;14.93;;;4.60;48.00;;;;;;9847982;30;20546;-83
2022/03/20 18:48:09;;;;;;;36.30;16.87;;;4.60;48.70;;;;;;9844003;30;20040;-83
2022/03/20 18:53:09;;;;;;;36.13;17.40;;;4.70;48.10;;;;;;9835108;30;20851;-84
2022/03/20 18:58:10;;;;;;;36.40;16.60;;;4.60;48.20;;;;;;9835930;30;20051;-84
2022/03/20 19:03:11;;;;;;;31.77;15.27;;;4.60;48.60;;;;;;9868114;30;20154;-84
2022/03/20 19:08:13;;;;;;;38.47;16.50;;;4.60;48.60;;;;;;9864132;30;20062;-84
2022/03/20 19:13:14;;;;;;;31.87;14.20;;;4.60;48.70;;;;;;9863119;30;20366;-84
2022/03/20 19:18:22;;;;;;;32.97;15.00;;;4.60;48.90;;;;;;9862970;30;20039;-84
2022/03/20 19:23:22;;;;;;;34.87;16.30;;;4.60;49.20;;;;;;9864423;30;20035;-84
2022/03/20 19:28:23;;;;;;;35.80;15.67;;;4.60;49.20;;;;;;9856795;30;20044;-85
2022/03/20 19:33:24;;;;;;;32.47;14.60;;;4.50;49.80;;;;;;9837695;30;20040;-81
2022/03/20 19:43:44;;;;;;;33.23;13.57;;;4.40;50.20;;;;;;9856930;30;20040;-82
2022/03/20 19:48:45;;;;;;;28.53;14.30;;;4.30;50.60;;;;;;9828876;30;20043;-82
2022/03/20 19:53:46;;;;;;;32.73;15.10;;;4.20;50.80;;;;;;9827211;30;20040;-82
2022/03/20 19:58:47;;;;;;;30.50;13.63;;;3.90;51.70;;;;;;9839524;30;20043;-80
2022/03/20 20:03:48;;;;;;;33.27;15.60;;;3.70;52.00;;;;;;9856851;30;20501;-80
2022/03/20 20:08:49;;;;;;;35.73;16.57;;;3.40;53.10;;;;;;9832325;30;20047;-80
2022/03/20 20:19:10;;;;;;;44.47;19.50;;;3.30;53.00;;;;;;9870716;30;20138;-81
2022/03/20 20:24:11;;;;;;;40.53;17.17;;;3.10;53.80;;;;;;9870132;30;20457;-82
2022/03/20 20:29:12;;;;;;;41.00;17.77;;;2.70;54.20;;;;;;9900573;30;20489;-82
2022/03/20 20:34:12;;;;;;;34.40;16.47;;;2.40;55.30;;;;;;9864685;30;20525;-82
2022/03/20 20:39:14;;;;;;;41.33;17.50;;;2.30;55.60;;;;;;9871026;30;20055;-82
2022/03/20 20:44:20;;;;;;;41.80;17.97;;;2.10;56.20;;;;;;9869450;30;20039;-81
2022/03/20 20:49:21;;;;;;;41.20;16.67;;;1.80;56.40;;;;;;9866349;30;20036;-82
2022/03/20 20:54:22;;;;;;;39.43;17.20;;;1.60;56.50;;;;;;9853430;30;20442;-82
2022/03/20 20:59:23;;;;;;;43.70;18.80;;;1.60;58.30;;;;;;9867055;30;20054;-82
2022/03/20 21:04:23;;;;;;;56.43;22.60;;;1.60;58.00;;;;;;9868986;30;20078;-82
2022/03/20 21:14:44;;;;;;;53.77;21.87;;;1.70;58.50;;;;;;9868476;30;20083;-82
2022/03/20 21:19:45;;;;;;;81.93;30.60;;;1.80;58.30;;;;;;9868400;30;20175;-82
2022/03/20 21:24:46;;;;;;;98.60;33.00;;;1.80;58.80;;;;;;9869058;30;20035;-82
2022/03/20 21:29:46;;;;;;;108.77;37.73;;;1.80;59.30;;;;;;9866443;30;20036;-82
2022/03/20 21:34:47;;;;;;;110.57;36.70;;;1.80;59.40;;;;;;9867346;30;20055;-82
2022/03/20 21:39:48;;;;;;;78.50;28.03;;;1.90;59.20;;;;;;9868402;30;20043;-82
2022/03/20 21:44:48;;;;;;;94.00;31.80;;;1.90;59.00;;;;;;9874123;30;20047;-82
2022/03/20 21:49:49;;;;;;;72.93;28.03;;;1.90;59.40;;;;;;9869616;30;20040;-81
2022/03/20 21:54:51;;;;;;;131.30;43.47;;;1.80;59.50;;;;;;9867163;30;20490;-81
2022/03/20 21:59:52;;;;;;;74.47;31.23;;;1.80;59.70;;;;;;9866755;30;20047;-81
2022/03/20 22:04:52;;;;;;;69.53;28.23;;;1.80;59.80;;;;;;9866206;30;20507;-81
2022/03/20 22:09:53;;;;;;;58.40;23.57;;;1.80;59.90;;;;;;9865146;30;20055;-82
2022/03/20 22:14:54;;;;;;;65.77;25.40;;;1.80;60.00;;;;;;9866039;30;20039;-82
2022/03/20 22:19:54;;;;;;;88.37;30.93;;;1.70;60.00;;;;;;9866191;30;20072;-81
2022/03/20 22:24:57;;;;;;;67.43;25.17;;;1.80;60.40;;;;;;9866343;30;20039;-82
2022/03/20 22:29:58;;;;;;;56.60;23.63;;;1.70;60.50;;;;;;9865952;30;20470;-82
2022/03/20 22:40:20;;;;;;;63.53;25.23;;;1.70;60.60;;;;;;9864454;30;20047;-82
2022/03/20 22:45:23;;;;;;;52.90;22.50;;;1.80;60.30;;;;;;9865532;30;20042;-82
2022/03/20 22:50:25;;;;;;;57.57;21.93;;;1.70;60.40;;;;;;9866214;30;20035;-82
2022/03/20 22:55:29;;;;;;;58.23;23.77;;;1.70;60.40;;;;;;9863551;30;20039;-81
2022/03/20 23:00:29;;;;;;;52.83;22.40;;;1.60;60.80;;;;;;9865020;30;20060;-82
2022/03/20 23:05:30;;;;;;;49.90;20.77;;;1.50;61.10;;;;;;9864012;30;20386;-83
2022/03/20 23:10:31;;;;;;;48.30;20.27;;;1.40;60.80;;;;;;9864518;30;20070;-82
2022/03/20 23:15:32;;;;;;;61.53;24.53;;;1.40;61.50;;;;;;9865345;30;20127;-82
2022/03/20 23:20:33;;;;;;;56.20;22.90;;;1.40;61.50;;;;;;9863845;30;20047;-82
2022/03/20 23:25:34;;;;;;;49.30;22.00;;;1.50;61.30;;;;;;9864418;30;20040;-82
2022/03/20 23:30:34;;;;;;;48.40;21.20;;;1.40;61.80;;;;;;9863953;30;20108;-82
2022/03/20 23:35:37;;;;;;;48.57;22.00;;;1.30;62.00;;;;;;9863786;30;20093;-82
2022/03/20 23:40:37;;;;;;;45.77;20.60;;;1.30;62.20;;;;;;9864221;30;20060;-82
2022/03/20 23:45:43;;;;;;;47.03;20.90;;;1.20;62.90;;;;;;9863628;30;20050;-82
2022/03/20 23:50:45;;;;;;;47.97;19.98;;;1.20;62.50;;;;;;9828049;30;20044;-82
2022/03/20 23:55:46;;;;;;;51.57;21.93;;;1.20;62.20;;;;;;9837921;30;20688;-81
